Time;durP1;ratioP1;P1;durP2;ratioP2;P2;SDS_P1;SDS_P2;PMS_P1;PMS_P2;Temp;Humidity;BMP_temperature;BMP_pressure;BME280_temperature;BME280_humidity;BME280_pressure;Samples;Min_cycle;Max_cycle;Signal;HPM_P1;HPM_P2
2023/02/03 00:00:22;;;;;;;5.57;5.07;;;15.90;64.80;;;;;;5066987;28;20044;-32
2023/02/03 00:02:48;;;;;;;4.93;4.50;;;15.90;64.80;;;;;;5064812;28;20072;-30
2023/02/03 00:05:13;;;;;;;5.05;4.65;;;15.90;64.70;;;;;;5065169;28;20499;-26
2023/02/03 00:07:39;;;;;;;4.63;4.22;;;15.90;64.60;;;;;;5064106;28;20113;-18
2023/02/03 00:10:05;;;;;;;6.43;5.30;;;15.90;64.60;;;;;;5064924;28;20041;-35
2023/02/03 00:12:30;;;;;;;4.82;4.38;;;15.90;64.60;;;;;;5081884;28;20044;-28
2023/02/03 00:14:56;;;;;;;4.55;4.15;;;15.90;64.60;;;;;;5062276;28;20047;-15
2023/02/03 00:17:22;;;;;;;4.32;4.03;;;15.90;64.60;;;;;;5066770;28;20045;-20
2023/02/03 00:19:48;;;;;;;4.82;4.43;;;15.90;64.60;;;;;;5066690;28;20040;-16
2023/02/03 00:22:13;;;;;;;5.90;4.60;;;15.90;64.60;;;;;;5064200;28;20082;-17
2023/02/03 00:24:39;;;;;;;4.95;4.47;;;15.90;64.60;;;;;;5066499;28;20067;-16
2023/02/03 00:27:05;;;;;;;4.35;3.95;;;15.90;64.50;;;;;;5062478;28;20036;-19
2023/02/03 00:29:30;;;;;;;4.45;4.05;;;15.90;64.60;;;;;;5064882;28;20040;-20
2023/02/03 00:31:57;;;;;;;5.05;4.30;;;15.90;64.50;;;;;;5061694;28;20071;-16
2023/02/03 00:34:28;;;;;;;4.75;4.35;;;16.00;64.50;;;;;;5063432;28;20115;-14
2023/02/03 00:36:54;;;;;;;4.38;4.07;;;15.90;64.50;;;;;;5058796;28;20075;-24
2023/02/03 00:39:20;;;;;;;4.68;4.28;;;16.00;64.50;;;;;;5066247;28;20078;-24
2023/02/03 00:41:45;;;;;;;5.25;4.60;;;15.90;64.50;;;;;;5065691;28;20503;-15
2023/02/03 00:44:11;;;;;;;4.70;4.30;;;16.00;64.60;;;;;;5065751;28;20036;-15
2023/02/03 00:46:37;;;;;;;4.10;3.80;;;16.00;64.50;;;;;;5065957;28;20064;-16
2023/02/03 00:49:03;;;;;;;4.40;4.00;;;16.00;64.50;;;;;;5065581;28;20578;-19
2023/02/03 00:51:28;;;;;;;4.22;3.80;;;15.90;64.50;;;;;;5065110;28;20578;-15
2023/02/03 00:53:54;;;;;;;4.03;3.72;;;16.00;64.50;;;;;;5067571;28;20617;-15
2023/02/03 00:56:20;;;;;;;4.38;3.97;;;16.00;64.50;;;;;;5063605;28;20124;-22
2023/02/03 00:58:45;;;;;;;3.72;3.42;;;16.00;64.40;;;;;;5071155;28;20473;-20
2023/02/03 01:01:11;;;;;;;4.18;3.85;;;16.00;64.50;;;;;;5065243;28;20053;-22
2023/02/03 01:03:37;;;;;;;4.15;3.85;;;16.00;64.40;;;;;;5062970;28;20045;-30
2023/02/03 01:06:11;;;;;;;3.80;3.42;;;16.00;64.40;;;;;;5066362;28;20470;-35
2023/02/03 01:08:36;;;;;;;4.20;3.80;;;15.90;64.40;;;;;;5068862;28;20126;-25
2023/02/03 01:11:09;;;;;;;4.18;3.88;;;16.00;64.40;;;;;;5066854;28;20156;-17
2023/02/03 01:13:35;;;;;;;3.65;3.35;;;16.00;64.30;;;;;;5070194;28;20043;-15
2023/02/03 01:16:01;;;;;;;3.85;3.55;;;16.00;64.40;;;;;;5063878;28;20048;-30
2023/02/03 01:18:26;;;;;;;4.45;4.05;;;16.00;64.40;;;;;;5069050;28;20041;-26
2023/02/03 01:20:52;;;;;;;4.53;4.13;;;16.00;64.20;;;;;;5068921;28;20455;-28
2023/02/03 01:23:17;;;;;;;3.95;3.65;;;16.00;64.30;;;;;;5069182;28;20139;-20
2023/02/03 01:25:43;;;;;;;4.18;3.88;;;15.90;64.30;;;;;;5052948;28;20029;-21
2023/02/03 01:28:08;;;;;;;3.58;3.38;;;15.90;64.30;;;;;;5052134;28;20098;-35
2023/02/03 01:30:34;;;;;;;3.28;3.08;;;16.00;64.20;;;;;;5046907;28;20041;-25
2023/02/03 01:32:59;;;;;;;3.42;3.13;;;16.00;64.20;;;;;;5045796;28;21545;-19
2023/02/03 01:35:25;;;;;;;3.47;3.25;;;16.00;64.10;;;;;;5047314;28;20044;-25
2023/02/03 01:37:50;;;;;;;3.38;3.17;;;16.00;64.80;;;;;;5045939;28;20060;-39
2023/02/03 01:40:17;;;;;;;3.65;3.35;;;16.00;64.00;;;;;;5045718;28;20051;-30
2023/02/03 01:42:42;;;;;;;3.65;3.35;;;16.00;63.90;;;;;;5047383;28;20040;-25
2023/02/03 01:45:09;;;;;;;3.60;3.40;;;16.00;64.00;;;;;;5045131;28;20541;-17
2023/02/03 01:47:38;;;;;;;3.50;3.30;;;16.00;64.00;;;;;;5046249;28;20045;-21
2023/02/03 01:50:24;;;;;;;3.00;2.80;;;16.00;64.00;;;;;;5045731;28;20135;-13
2023/02/03 01:52:52;;;;;;;3.20;3.00;;;16.00;64.00;;;;;;5048432;28;21235;-13
2023/02/03 01:55:22;;;;;;;3.67;3.38;;;16.00;64.00;;;;;;5064502;28;20124;-15
2023/02/03 01:57:55;;;;;;;2.80;2.60;;;16.00;64.00;;;;;;5045847;28;20150;-15
2023/02/03 02:00:21;;;;;;;3.00;2.80;;;16.00;63.80;;;;;;5060686;28;21594;-15
2023/02/03 02:02:47;;;;;;;2.95;2.75;;;16.00;63.80;;;;;;5046702;28;20147;-14
2023/02/03 02:05:14;;;;;;;2.78;2.58;;;16.00;63.60;;;;;;5044365;28;20804;-14
2023/02/03 02:07:40;;;;;;;3.00;2.80;;;16.10;63.70;;;;;;5047411;28;20040;-16
2023/02/03 02:10:06;;;;;;;3.10;2.90;;;16.00;63.60;;;;;;5043322;28;20047;-21
2023/02/03 02:12:31;;;;;;;2.55;2.35;;;16.00;63.50;;;;;;5045842;28;20605;-19
2023/02/03 02:14:57;;;;;;;2.35;2.25;;;16.00;63.40;;;;;;5046011;28;20041;-18
2023/02/03 02:17:43;;;;;;;3.00;2.80;;;16.00;63.60;;;;;;5040946;28;20056;-15
2023/02/03 02:20:45;;;;;;;2.95;2.72;;;16.00;63.50;;;;;;5045207;28;20135;-16
2023/02/03 02:23:47;;;;;;;2.70;2.50;;;16.00;63.50;;;;;;5061393;28;20048;-15
2023/02/03 02:26:47;;;;;;;2.25;2.15;;;16.00;63.60;;;;;;5044461;28;20047;-14
2023/02/03 02:29:35;;;;;;;2.22;2.13;;;15.90;63.60;;;;;;5045544;28;20558;-14
2023/02/03 02:32:14;;;;;;;2.47;2.30;;;15.90;63.80;;;;;;5043308;28;20435;-17
2023/02/03 02:35:14;;;;;;;2.50;2.30;;;15.90;63.80;;;;;;5043900;28;20054;-24
2023/02/03 02:38:26;;;;;;;2.20;2.10;;;15.90;63.80;;;;;;5048708;28;20043;-26
2023/02/03 02:41:09;;;;;;;2.13;2.03;;;15.90;63.70;;;;;;5042353;28;20048;-28
2023/02/03 02:43:54;;;;;;;2.63;2.42;;;15.90;63.80;;;;;;5063840;28;20619;-18
2023/02/03 02:46:25;;;;;;;2.00;1.90;;;15.90;63.80;;;;;;5045715;28;20600;-14
2023/02/03 02:49:00;;;;;;;2.08;1.98;;;15.90;63.90;;;;;;5042815;28;20600;-18
2023/02/03 02:51:26;;;;;;;2.58;2.40;;;15.90;63.70;;;;;;5046444;28;20049;-28
2023/02/03 02:53:54;;;;;;;2.22;2.13;;;15.90;63.90;;;;;;5042583;28;20391;-15
2023/02/03 02:56:20;;;;;;;2.40;2.30;;;15.80;63.80;;;;;;5040090;28;20036;-13
2023/02/03 02:58:47;;;;;;;2.13;1.92;;;15.80;63.80;;;;;;5046957;28;20029;-15
2023/02/03 03:01:13;;;;;;;2.30;2.20;;;15.80;63.80;;;;;;5059933;28;20787;-15
2023/02/03 03:03:41;;;;;;;2.00;1.90;;;15.80;63.80;;;;;;5047301;28;20167;-15
2023/02/03 03:06:27;;;;;;;1.85;1.75;;;15.90;63.80;;;;;;5043195;28;20047;-15
2023/02/03 03:09:06;;;;;;;1.85;1.75;;;15.80;63.80;;;;;;5045276;28;20388;-23
2023/02/03 03:11:34;;;;;;;2.20;2.10;;;15.90;63.90;;;;;;5044495;28;20048;-18
2023/02/03 03:14:00;;;;;;;2.13;2.03;;;15.80;63.60;;;;;;5034862;28;20648;-14
2023/02/03 03:16:26;;;;;;;2.33;2.22;;;15.80;63.90;;;;;;5058752;28;20061;-15
2023/02/03 03:19:26;;;;;;;2.00;1.90;;;15.80;63.90;;;;;;5041975;28;20129;-21
2023/02/03 03:21:54;;;;;;;1.88;1.77;;;15.80;64.00;;;;;;5014014;28;20571;-24
2023/02/03 03:24:24;;;;;;;1.85;1.75;;;15.90;63.70;;;;;;5041134;28;20119;-20
2023/02/03 03:26:56;;;;;;;1.88;1.77;;;15.80;63.70;;;;;;5041888;28;20061;-18
2023/02/03 03:29:33;;;;;;;1.90;1.80;;;15.80;63.80;;;;;;5052169;28;20053;-16
2023/02/03 03:31:59;;;;;;;1.77;1.67;;;15.90;63.60;;;;;;5059036;28;20055;-17
2023/02/03 03:34:25;;;;;;;1.60;1.50;;;16.00;63.40;;;;;;5025271;28;20423;-16
2023/02/03 03:37:11;;;;;;;2.28;2.08;;;15.90;63.20;;;;;;5044819;28;20048;-21
2023/02/03 03:39:50;;;;;;;1.77;1.67;;;16.00;63.10;;;;;;5045222;28;20072;-17
2023/02/03 03:42:47;;;;;;;1.77;1.67;;;16.00;63.40;;;;;;5034050;28;20078;-17
2023/02/03 03:45:25;;;;;;;2.38;1.60;;;16.20;62.80;;;;;;5022278;28;20048;-27
2023/02/03 03:48:14;;;;;;;1.67;1.58;;;16.10;62.70;;;;;;5021242;28;20511;-18
2023/02/03 03:50:45;;;;;;;1.48;1.38;;;16.00;62.80;;;;;;5057292;28;20044;-18
2023/02/03 03:53:10;;;;;;;1.65;1.55;;;16.00;63.10;;;;;;5041923;28;20055;-17
2023/02/03 03:55:36;;;;;;;1.60;1.50;;;16.00;63.10;;;;;;5036484;28;20044;-16
2023/02/03 03:58:09;;;;;;;1.80;1.70;;;16.20;63.00;;;;;;5042538;28;20037;-16
2023/02/03 04:00:36;;;;;;;1.63;1.52;;;16.00;63.20;;;;;;5042073;28;20048;-24
2023/02/03 04:03:16;;;;;;;1.80;1.38;;;16.10;63.10;;;;;;5037367;28;20249;-19
2023/02/03 04:05:42;;;;;;;1.65;1.55;;;16.10;62.90;;;;;;5060574;28;20584;-17
2023/02/03 04:08:08;;;;;;;1.17;1.15;;;16.00;63.80;;;;;;5043415;28;20069;-20
2023/02/03 04:10:35;;;;;;;1.40;1.30;;;16.10;63.00;;;;;;5043538;28;20526;-17
2023/02/03 04:13:01;;;;;;;1.40;1.30;;;16.00;63.10;;;;;;5058803;28;20455;-27
2023/02/03 04:15:26;;;;;;;1.50;1.40;;;16.00;63.20;;;;;;5042979;28;20044;-15
2023/02/03 04:17:53;;;;;;;1.80;1.52;;;15.80;63.50;;;;;;5044915;28;20040;-15
2023/02/03 04:20:19;;;;;;;1.75;1.65;;;16.00;63.50;;;;;;5046374;28;20037;-13
2023/02/03 04:22:45;;;;;;;1.60;1.50;;;16.00;63.00;;;;;;5044945;28;20048;-17
2023/02/03 04:25:10;;;;;;;1.30;1.20;;;16.10;62.80;;;;;;5043439;28;20435;-17
2023/02/03 04:27:36;;;;;;;1.50;1.40;;;15.90;63.10;;;;;;5040576;28;21657;-20
2023/02/03 04:30:02;;;;;;;1.38;1.30;;;15.90;63.50;;;;;;5042840;28;20048;-14
2023/02/03 04:32:29;;;;;;;1.33;1.23;;;16.00;63.10;;;;;;5040860;28;20092;-19
2023/02/03 04:34:56;;;;;;;1.40;1.30;;;15.90;63.10;;;;;;5043653;28;20066;-15
2023/02/03 04:37:22;;;;;;;1.35;1.30;;;16.00;63.00;;;;;;5043498;28;20482;-18
2023/02/03 04:39:50;;;;;;;1.60;1.50;;;15.90;63.30;;;;;;5044886;28;20607;-15
2023/02/03 04:42:16;;;;;;;1.63;1.52;;;15.90;63.00;;;;;;5043133;28;20475;-15
2023/02/03 04:44:42;;;;;;;0.98;0.98;;;16.00;63.10;;;;;;5042122;28;20064;-17
2023/02/03 04:47:07;;;;;;;1.27;1.17;;;15.90;63.00;;;;;;5046806;28;20386;-17
2023/02/03 04:49:33;;;;;;;1.50;1.40;;;15.90;63.30;;;;;;5042342;28;20048;-16
2023/02/03 04:51:59;;;;;;;1.00;1.00;;;15.80;63.20;;;;;;5043226;28;20121;-14
2023/02/03 04:54:24;;;;;;;1.25;1.25;;;15.80;63.50;;;;;;5043464;28;20135;-19
2023/02/03 04:56:50;;;;;;;1.58;1.48;;;15.80;63.60;;;;;;5042334;28;20044;-16
2023/02/03 04:59:16;;;;;;;1.13;1.13;;;15.90;63.50;;;;;;5043320;28;20041;-16
2023/02/03 05:01:41;;;;;;;1.20;1.20;;;15.80;63.80;;;;;;5041289;28;20052;-15
2023/02/03 05:04:07;;;;;;;1.40;1.30;;;15.70;63.70;;;;;;5042939;28;20051;-21
2023/02/03 05:06:32;;;;;;;1.60;1.50;;;15.70;63.70;;;;;;5038172;28;20175;-14
2023/02/03 05:08:58;;;;;;;1.15;1.05;;;15.80;64.50;;;;;;5043168;28;20068;-14
2023/02/03 05:11:24;;;;;;;1.10;1.10;;;15.80;63.60;;;;;;5057547;28;20105;-15
2023/02/03 05:13:49;;;;;;;0.95;0.95;;;15.80;63.30;;;;;;5043180;28;20045;-21
2023/02/03 05:16:15;;;;;;;1.13;1.13;;;15.80;63.40;;;;;;5043216;28;20044;-15
2023/02/03 05:18:41;;;;;;;1.25;1.17;;;15.90;63.20;;;;;;5042680;28;20587;-18
2023/02/03 05:21:06;;;;;;;1.25;1.25;;;15.80;63.30;;;;;;5043913;28;20058;-17
2023/02/03 05:23:32;;;;;;;0.80;0.80;;;15.70;63.70;;;;;;5041376;28;20056;-16
2023/02/03 05:25:57;;;;;;;1.00;1.00;;;15.60;64.00;;;;;;5041432;28;20525;-17
2023/02/03 05:28:23;;;;;;;1.00;1.00;;;15.70;64.00;;;;;;5041975;28;20045;-17
2023/02/03 05:30:49;;;;;;;0.88;0.88;;;15.70;63.60;;;;;;5043945;28;20051;-15
2023/02/03 05:33:14;;;;;;;1.00;1.00;;;16.00;63.10;;;;;;5043147;28;20062;-16
2023/02/03 05:35:40;;;;;;;1.40;1.17;;;16.00;63.10;;;;;;5043023;28;20052;-14
2023/02/03 05:38:05;;;;;;;1.00;1.00;;;15.90;63.20;;;;;;5045381;28;20491;-14
2023/02/03 05:43:15;;;;;;;1.00;1.00;;;15.80;63.50;;;;;;5046488;28;20415;-16
2023/02/03 05:45:41;;;;;;;0.90;0.90;;;15.90;63.40;;;;;;5046726;28;20506;-21
2023/02/03 05:48:07;;;;;;;0.80;0.80;;;15.80;63.30;;;;;;5046372;28;20973;-15
2023/02/03 05:50:33;;;;;;;1.33;1.02;;;15.70;63.70;;;;;;5044832;28;20079;-14
2023/02/03 05:52:59;;;;;;;0.93;0.90;;;15.80;63.70;;;;;;5050221;28;20043;-14
2023/02/03 05:55:26;;;;;;;0.93;0.93;;;15.70;63.80;;;;;;5049752;28;20086;-27
2023/02/03 05:57:51;;;;;;;1.10;1.00;;;15.70;63.70;;;;;;5046613;28;20322;-15
2023/02/03 06:00:17;;;;;;;0.88;0.88;;;15.80;63.50;;;;;;5051740;28;20110;-14
2023/02/03 06:02:43;;;;;;;1.00;1.00;;;15.70;63.60;;;;;;5065547;28;20044;-16
2023/02/03 06:05:08;;;;;;;0.85;0.85;;;15.80;63.60;;;;;;5066744;28;20090;-15
2023/02/03 06:07:34;;;;;;;0.98;0.75;;;16.00;63.30;;;;;;5067325;28;20045;-15
2023/02/03 06:10:00;;;;;;;0.60;0.60;;;15.90;63.40;;;;;;5067828;28;20036;-14
2023/02/03 06:12:25;;;;;;;0.82;0.82;;;15.80;63.40;;;;;;5066475;28;20066;-16
2023/02/03 06:14:51;;;;;;;1.10;1.10;;;15.70;63.80;;;;;;5066071;28;20380;-15
2023/02/03 06:17:16;;;;;;;0.70;0.70;;;15.60;63.90;;;;;;5066638;28;20128;-20
2023/02/03 06:19:42;;;;;;;0.70;0.70;;;15.70;63.90;;;;;;5064863;28;20504;-21
2023/02/03 06:22:07;;;;;;;1.00;0.90;;;15.70;63.60;;;;;;5068552;28;20163;-23
2023/02/03 06:24:33;;;;;;;1.02;1.02;;;15.80;63.30;;;;;;5067844;28;24439;-21
2023/02/03 06:26:59;;;;;;;0.82;0.75;;;15.70;63.70;;;;;;5061611;28;20055;-16
2023/02/03 06:29:24;;;;;;;1.10;1.00;;;15.70;63.60;;;;;;5063746;28;20044;-16
2023/02/03 06:31:50;;;;;;;0.70;0.70;;;15.70;63.70;;;;;;5064032;28;20062;-20
2023/02/03 06:34:15;;;;;;;0.85;0.85;;;15.80;63.50;;;;;;5068566;28;20468;-16
2023/02/03 06:36:41;;;;;;;0.85;0.85;;;15.80;63.60;;;;;;5066795;28;20040;-26
2023/02/03 06:39:06;;;;;;;0.63;0.63;;;15.70;63.90;;;;;;5065795;28;20155;-16
2023/02/03 06:41:32;;;;;;;0.60;0.60;;;15.70;63.80;;;;;;5062749;28;20052;-18
2023/02/03 06:43:58;;;;;;;0.65;0.65;;;15.80;63.60;;;;;;5066096;28;20519;-16
2023/02/03 06:46:28;;;;;;;0.82;0.82;;;15.90;63.60;;;;;;5065097;28;20124;-15
2023/02/03 06:48:53;;;;;;;0.80;0.80;;;15.90;63.50;;;;;;5066264;28;20078;-16
2023/02/03 06:51:19;;;;;;;1.20;0.85;;;15.70;64.20;;;;;;5064076;28;20121;-18
2023/02/03 06:53:44;;;;;;;0.65;0.60;;;15.60;64.40;;;;;;5068172;28;20576;-15
2023/02/03 06:56:10;;;;;;;0.70;0.70;;;15.70;64.40;;;;;;5067679;28;20040;-28
2023/02/03 06:58:36;;;;;;;1.33;0.70;;;15.80;64.00;;;;;;5066314;28;20057;-20
2023/02/03 07:01:01;;;;;;;0.70;0.70;;;15.80;64.00;;;;;;5068327;28;20075;-15
2023/02/03 07:03:27;;;;;;;2.55;1.02;;;15.70;64.20;;;;;;5065918;28;20044;-15
2023/02/03 07:05:52;;;;;;;0.90;0.80;;;15.70;64.50;;;;;;5067793;28;20056;-21
2023/02/03 07:08:18;;;;;;;0.80;0.80;;;15.90;64.00;;;;;;5066233;28;20135;-14
2023/02/03 07:10:43;;;;;;;1.48;0.80;;;15.60;65.00;;;;;;5065904;28;20068;-16
2023/02/03 07:13:09;;;;;;;0.77;0.77;;;15.70;64.80;;;;;;5068062;28;20059;-18
2023/02/03 07:15:35;;;;;;;0.80;0.60;;;15.60;64.80;;;;;;5066134;28;20036;-16
2023/02/03 07:18:00;;;;;;;0.65;0.65;;;15.70;65.00;;;;;;5067781;28;20047;-16
2023/02/03 07:20:27;;;;;;;0.50;0.50;;;15.60;64.90;;;;;;5067354;28;20048;-33
2023/02/03 07:22:56;;;;;;;0.90;0.90;;;15.60;65.00;;;;;;5066791;28;20066;-20
2023/02/03 07:25:22;;;;;;;0.70;0.70;;;15.70;64.90;;;;;;5061855;28;20071;-15
2023/02/03 07:27:48;;;;;;;0.73;0.52;;;15.50;65.10;;;;;;5061782;28;20068;-28
2023/02/03 07:30:13;;;;;;;1.27;0.88;;;15.70;65.90;;;;;;5064052;28;20032;-17
2023/02/03 07:32:39;;;;;;;1.08;0.80;;;15.80;65.50;;;;;;5067073;28;20041;-32
2023/02/03 07:35:05;;;;;;;1.60;0.80;;;15.60;65.10;;;;;;5067520;28;20406;-19
2023/02/03 07:37:30;;;;;;;2.13;0.70;;;15.90;64.70;;;;;;5066932;28;20044;-21
2023/02/03 07:39:56;;;;;;;2.55;0.95;;;15.70;65.00;;;;;;5067442;28;20033;-24
2023/02/03 07:42:22;;;;;;;0.95;0.60;;;15.80;64.80;;;;;;5065783;28;20047;-18
2023/02/03 07:44:47;;;;;;;0.75;0.75;;;15.90;64.50;;;;;;5065266;28;20463;-19
2023/02/03 07:47:13;;;;;;;0.60;0.60;;;15.90;64.50;;;;;;5064891;28;20069;-19
2023/02/03 07:49:38;;;;;;;0.52;0.52;;;15.80;64.80;;;;;;5065639;28;20130;-23
2023/02/03 07:52:04;;;;;;;4.88;0.90;;;15.90;64.60;;;;;;5066464;28;20051;-40
2023/02/03 07:54:29;;;;;;;0.65;0.60;;;15.70;65.50;;;;;;5067358;28;20529;-33
2023/02/03 07:56:55;;;;;;;1.58;0.63;;;15.70;65.50;;;;;;5065705;28;20044;-32
2023/02/03 07:59:21;;;;;;;2.88;0.60;;;15.80;64.90;;;;;;5066208;28;20079;-29
2023/02/03 08:01:46;;;;;;;0.80;0.60;;;15.60;65.50;;;;;;5065227;28;20040;-21
2023/02/03 08:04:15;;;;;;;3.20;0.70;;;15.80;65.10;;;;;;5067200;28;20048;-28
2023/02/03 08:06:41;;;;;;;0.50;0.50;;;15.70;65.30;;;;;;5066151;28;20101;-35
2023/02/03 08:09:07;;;;;;;0.60;0.60;;;15.70;65.30;;;;;;5061806;28;20423;-27
2023/02/03 08:11:33;;;;;;;0.60;0.60;;;15.60;65.60;;;;;;5062361;28;20040;-20
2023/02/03 08:13:58;;;;;;;0.50;0.50;;;15.60;65.70;;;;;;5064544;28;20056;-21
2023/02/03 08:16:24;;;;;;;0.50;0.50;;;15.90;65.10;;;;;;5066123;28;20051;-24
2023/02/03 08:18:49;;;;;;;1.20;0.60;;;15.80;65.30;;;;;;5061481;28;20052;-24
2023/02/03 08:21:15;;;;;;;1.42;0.50;;;15.80;65.20;;;;;;5064509;28;20163;-18
2023/02/03 08:23:40;;;;;;;0.60;0.50;;;15.60;65.80;;;;;;5066351;28;20150;-25
2023/02/03 08:26:06;;;;;;;0.68;0.50;;;15.70;65.80;;;;;;5066273;28;20040;-36
2023/02/03 08:28:32;;;;;;;1.60;0.73;;;15.70;65.70;;;;;;5066467;28;20052;-24
2023/02/03 08:30:57;;;;;;;14.10;0.70;;;15.70;65.90;;;;;;5066477;28;20025;-25
2023/02/03 08:33:23;;;;;;;0.90;0.57;;;15.70;65.90;;;;;;5066865;28;20491;-38
2023/02/03 08:35:48;;;;;;;0.55;0.43;;;15.60;66.00;;;;;;5067320;28;20048;-35
2023/02/03 08:38:14;;;;;;;0.65;0.40;;;15.70;65.90;;;;;;5065559;28;20518;-37
2023/02/03 08:40:40;;;;;;;1.95;0.50;;;15.70;65.90;;;;;;5067742;28;20451;-41
2023/02/03 08:43:06;;;;;;;0.57;0.50;;;15.70;65.70;;;;;;5065520;28;20060;-19
2023/02/03 08:45:31;;;;;;;0.50;0.50;;;15.90;65.30;;;;;;5066904;28;20072;-32
2023/02/03 08:47:57;;;;;;;0.28;0.28;;;15.70;65.70;;;;;;5065286;28;20435;-22
2023/02/03 08:50:22;;;;;;;0.70;0.50;;;15.70;65.80;;;;;;5065998;28;20036;-27
2023/02/03 08:52:48;;;;;;;0.75;0.50;;;15.90;65.40;;;;;;5066968;28;20306;-23
2023/02/03 08:55:14;;;;;;;0.40;0.40;;;15.70;65.50;;;;;;5066838;28;20102;-30
2023/02/03 08:57:40;;;;;;;1.27;0.57;;;15.80;65.90;;;;;;5066533;28;20519;-35
2023/02/03 09:00:07;;;;;;;0.40;0.40;;;15.90;66.10;;;;;;5065974;28;20067;-17
2023/02/03 09:02:33;;;;;;;0.40;0.40;;;15.70;65.70;;;;;;5074282;28;20036;-35
2023/02/03 09:04:58;;;;;;;0.63;0.50;;;15.70;66.00;;;;;;5064211;28;20035;-36
2023/02/03 09:07:24;;;;;;;0.50;0.50;;;15.70;65.70;;;;;;5063726;28;20033;-21
2023/02/03 09:09:50;;;;;;;0.35;0.32;;;15.90;65.30;;;;;;5064926;28;20071;-39
2023/02/03 09:12:16;;;;;;;1.00;0.50;;;15.90;65.10;;;;;;5065972;28;20044;-35
2023/02/03 09:14:41;;;;;;;0.82;0.50;;;15.90;65.10;;;;;;5065538;28;20036;-18
2023/02/03 09:17:08;;;;;;;0.38;0.38;;;15.90;65.10;;;;;;5069569;28;20043;-37
2023/02/03 09:19:34;;;;;;;0.57;0.40;;;16.00;64.90;;;;;;5069024;28;20079;-17
2023/02/03 09:21:59;;;;;;;0.50;0.50;;;15.70;65.50;;;;;;5066782;28;20052;-21
2023/02/03 09:24:25;;;;;;;0.40;0.40;;;15.70;66.70;;;;;;5069253;28;20040;-23
2023/02/03 09:26:50;;;;;;;0.30;0.30;;;15.80;65.50;;;;;;5069762;28;20135;-19
2023/02/03 09:29:16;;;;;;;0.30;0.30;;;15.70;65.80;;;;;;5069366;28;20136;-20
2023/02/03 09:31:42;;;;;;;0.40;0.40;;;15.80;65.70;;;;;;5069596;28;20204;-19
2023/02/03 09:34:08;;;;;;;0.40;0.40;;;15.70;65.90;;;;;;5058143;28;20432;-19
2023/02/03 09:36:34;;;;;;;0.57;0.40;;;15.90;65.80;;;;;;5065267;28;20495;-26
2023/02/03 09:38:59;;;;;;;0.40;0.38;;;15.80;65.80;;;;;;5062242;28;20467;-20
2023/02/03 09:41:31;;;;;;;0.68;0.50;;;15.80;65.50;;;;;;5063255;28;20078;-28
2023/02/03 09:44:05;;;;;;;0.80;0.50;;;15.90;65.70;;;;;;5064505;28;20074;-24
2023/02/03 09:46:38;;;;;;;0.40;0.40;;;15.90;65.50;;;;;;5064528;28;20391;-31
2023/02/03 09:49:17;;;;;;;0.40;0.40;;;16.00;65.40;;;;;;5062375;28;20056;-21
2023/02/03 09:51:45;;;;;;;0.30;0.30;;;16.00;65.50;;;;;;5073786;28;20095;-25
2023/02/03 09:54:16;;;;;;;0.57;0.40;;;15.80;65.80;;;;;;5062013;28;20075;-20
2023/02/03 09:56:48;;;;;;;0.57;0.40;;;15.90;65.80;;;;;;5061270;28;20033;-31
2023/02/03 09:59:14;;;;;;;0.52;0.40;;;15.80;66.10;;;;;;5070011;28;20056;-38
2023/02/03 10:01:56;;;;;;;1.17;0.40;;;15.80;66.00;;;;;;5064719;28;20040;-30
2023/02/03 10:04:31;;;;;;;0.50;0.50;;;16.00;65.70;;;;;;5061752;28;20048;-33
2023/02/03 10:07:07;;;;;;;1.92;0.35;;;16.10;65.20;;;;;;5049307;28;20043;-31
2023/02/03 10:09:38;;;;;;;0.45;0.45;;;16.00;65.30;;;;;;5076257;28;20040;-18
2023/02/03 10:12:39;;;;;;;0.30;0.30;;;15.90;66.00;;;;;;5062360;28;20036;-20
2023/02/03 10:15:23;;;;;;;0.98;0.43;;;15.90;65.80;;;;;;4711022;28;10000458;-37
2023/02/03 10:17:55;;;;;;;0.30;0.30;;;16.00;65.90;;;;;;5059983;28;20076;-32
2023/02/03 10:20:34;;;;;;;0.40;0.40;;;16.00;65.80;;;;;;5057661;28;20049;-30
2023/02/03 10:23:03;;;;;;;0.30;0.30;;;15.90;65.50;;;;;;5041628;28;20404;-22
2023/02/03 10:25:43;;;;;;;0.30;0.30;;;16.00;65.50;;;;;;5047387;28;20560;-26
2023/02/03 10:28:19;;;;;;;0.75;0.50;;;16.20;64.90;;;;;;5048264;28;20488;-22
2023/02/03 10:30:55;;;;;;;0.30;0.30;;;16.20;64.80;;;;;;5067177;28;20041;-24
2023/02/03 10:33:26;;;;;;;0.40;0.40;;;16.30;64.60;;;;;;5044622;28;20044;-45
2023/02/03 10:36:02;;;;;;;1.40;0.30;;;16.20;64.40;;;;;;5067612;28;20911;-36
2023/02/03 10:38:55;;;;;;;0.32;0.32;;;16.10;64.90;;;;;;5047916;28;20488;-32
2023/02/03 10:41:21;;;;;;;0.45;0.45;;;15.90;65.70;;;;;;5046636;28;20396;-27
2023/02/03 10:43:46;;;;;;;0.50;0.50;;;15.80;65.90;;;;;;5047540;28;20040;-42
2023/02/03 10:46:15;;;;;;;0.60;0.40;;;15.90;65.80;;;;;;5042879;28;20124;-40
2023/02/03 10:48:41;;;;;;;0.20;0.20;;;15.80;65.80;;;;;;5067844;28;20135;-27
2023/02/03 10:51:47;;;;;;;0.40;0.40;;;15.90;65.60;;;;;;5048606;28;20125;-18
2023/02/03 10:54:32;;;;;;;0.65;0.35;;;16.00;65.40;;;;;;5042696;28;20564;-34
2023/02/03 10:57:05;;;;;;;0.40;0.40;;;16.10;64.90;;;;;;5041380;28;20069;-22
2023/02/03 10:59:33;;;;;;;0.57;0.47;;;16.10;64.80;;;;;;5047349;28;20045;-36
2023/02/03 11:01:58;;;;;;;0.45;0.45;;;16.30;64.50;;;;;;5022172;28;20171;-48
2023/02/03 11:04:31;;;;;;;0.50;0.50;;;16.30;64.20;;;;;;5029801;28;20063;-39
2023/02/03 11:07:05;;;;;;;0.40;0.40;;;16.20;64.40;;;;;;5035846;28;20053;-34
2023/02/03 11:09:36;;;;;;;0.40;0.40;;;16.30;64.40;;;;;;5030942;28;20045;-23
2023/02/03 11:12:09;;;;;;;0.80;0.45;;;16.40;64.60;;;;;;5038234;28;20145;-33
2023/02/03 11:14:36;;;;;;;2.38;0.65;;;16.20;64.70;;;;;;5036209;28;20178;-21
2023/02/03 11:17:13;;;;;;;0.70;0.50;;;16.20;64.90;;;;;;5031681;28;20048;-28
2023/02/03 11:19:38;;;;;;;0.60;0.30;;;16.10;64.90;;;;;;5031352;28;20047;-20
2023/02/03 11:22:04;;;;;;;0.40;0.40;;;16.10;65.20;;;;;;5031390;28;20049;-32
2023/02/03 11:24:36;;;;;;;0.55;0.50;;;16.00;65.10;;;;;;5031637;28;20056;-35
2023/02/03 11:27:13;;;;;;;0.45;0.45;;;16.10;65.10;;;;;;5029798;28;20239;-26
2023/02/03 11:29:46;;;;;;;0.35;0.35;;;16.20;64.70;;;;;;5040576;28;20083;-21
2023/02/03 11:32:17;;;;;;;0.40;0.40;;;16.20;64.80;;;;;;5056032;28;20056;-38
2023/02/03 11:34:55;;;;;;;0.40;0.40;;;16.20;64.60;;;;;;5014602;28;20052;-21
2023/02/03 11:37:40;;;;;;;0.73;0.47;;;16.20;64.50;;;;;;5043371;28;20079;-28
2023/02/03 11:40:06;;;;;;;0.30;0.30;;;16.30;64.20;;;;;;5027051;28;20066;-28
2023/02/03 11:42:35;;;;;;;1.95;0.50;;;16.40;63.80;;;;;;5031109;28;20640;-31
2023/02/03 11:45:36;;;;;;;0.60;0.40;;;16.40;63.80;;;;;;5028245;28;20136;-19
2023/02/03 11:48:17;;;;;;;0.30;0.30;;;16.30;64.40;;;;;;5031404;28;20044;-16
2023/02/03 11:50:54;;;;;;;0.50;0.50;;;16.30;64.70;;;;;;5038507;28;20053;-18
2023/02/03 11:53:45;;;;;;;0.38;0.38;;;16.20;64.80;;;;;;5028980;28;20087;-25
2023/02/03 11:56:27;;;;;;;0.85;0.40;;;16.20;64.80;;;;;;5027944;28;20155;-20
2023/02/03 11:59:02;;;;;;;0.40;0.40;;;16.20;64.90;;;;;;5029190;28;20053;-43
2023/02/03 12:01:55;;;;;;;0.63;0.50;;;16.10;65.60;;;;;;5029516;28;20076;-30
2023/02/03 12:04:36;;;;;;;0.40;0.40;;;16.20;64.80;;;;;;5029221;28;20076;-22
2023/02/03 12:07:10;;;;;;;1.95;0.47;;;16.10;64.90;;;;;;5029473;28;20098;-29
2023/02/03 12:09:36;;;;;;;;;;;16.10;65.00;;;;;;5030866;28;20107;-31
2023/02/03 12:12:07;;;;;;;0.38;0.38;;;16.10;65.00;;;;;;5045808;28;19924;-23
2023/02/03 12:15:03;;;;;;;0.50;0.50;;;16.10;65.00;;;;;;4327744;28;10000890;-18
2023/02/03 12:17:43;;;;;;;0.45;0.45;;;16.20;64.80;;;;;;5025678;28;21353;-38
2023/02/03 12:20:17;;;;;;;0.53;0.53;;;16.20;64.80;;;;;;5033426;28;20099;-18
2023/02/03 12:23:12;;;;;;;0.40;0.40;;;16.20;64.70;;;;;;5037944;28;20911;-19
2023/02/03 12:26:00;;;;;;;0.60;0.50;;;16.20;64.70;;;;;;5003850;28;20076;-25
2023/02/03 12:28:33;;;;;;;0.38;0.32;;;16.20;64.70;;;;;;4985579;28;20128;-31
2023/02/03 12:31:20;;;;;;;0.60;0.45;;;16.10;65.70;;;;;;4981746;28;20475;-32
2023/02/03 12:34:28;;;;;;;0.77;0.55;;;16.20;65.40;;;;;;4995918;28;20046;-24
2023/02/03 12:37:17;;;;;;;2.85;0.57;;;16.20;66.10;;;;;;4928017;28;20453;-25
2023/02/03 12:39:57;;;;;;;0.77;0.77;;;16.10;66.80;;;;;;4941512;28;20253;-26
2023/02/03 12:42:39;;;;;;;1.33;0.80;;;16.10;66.90;;;;;;4943035;28;20063;-22
2023/02/03 12:45:19;;;;;;;0.77;0.77;;;16.20;67.80;;;;;;4943303;28;20944;-26
2023/02/03 12:47:50;;;;;;;1.38;0.75;;;16.20;67.80;;;;;;4943607;28;20081;-36
2023/02/03 12:50:18;;;;;;;0.80;0.55;;;16.20;67.80;;;;;;4944638;28;20047;-30
2023/02/03 12:53:17;;;;;;;0.77;0.73;;;16.10;67.90;;;;;;4950976;28;20061;-36
2023/02/03 12:55:55;;;;;;;0.90;0.65;;;16.20;68.10;;;;;;4948680;28;20051;-19
2023/02/03 12:58:25;;;;;;;1.90;0.70;;;16.20;67.70;;;;;;4948283;28;20079;-33
2023/02/03 13:00:59;;;;;;;1.73;0.70;;;16.20;67.80;;;;;;4946922;28;20043;-29
2023/02/03 13:03:49;;;;;;;1.35;0.80;;;16.10;68.20;;;;;;4973296;28;20497;-23
2023/02/03 13:06:47;;;;;;;1.23;0.73;;;16.10;68.00;;;;;;4998020;28;20847;-19